sensor_id;sensor_type;location;lat;lon;timestamp;P1;durP1;ratioP1;P2;durP2;ratioP2
65202;SDS011;51788;45.124;38.966;2022-08-05T00:01:14;11.93;;;8.43;;
65202;SDS011;51788;45.124;38.966;2022-08-05T00:03:41;9.32;;;8.45;;
65202;SDS011;51788;45.124;38.966;2022-08-05T00:06:08;10.98;;;9.85;;
65202;SDS011;51788;45.124;38.966;2022-08-05T00:08:35;10.65;;;8.43;;
65202;SDS011;51788;45.124;38.966;2022-08-05T00:11:02;9.50;;;8.63;;
65202;SDS011;51788;45.124;38.966;2022-08-05T00:13:31;14.82;;;9.27;;
65202;SDS011;51788;45.124;38.966;2022-08-05T00:16:01;10.15;;;9.18;;
65202;SDS011;51788;45.124;38.966;2022-08-05T00:18:28;9.45;;;8.50;;
65202;SDS011;51788;45.124;38.966;2022-08-05T00:20:54;10.50;;;9.50;;
65202;SDS011;51788;45.124;38.966;2022-08-05T00:23:20;10.02;;;8.68;;
65202;SDS011;51788;45.124;38.966;2022-08-05T00:25:47;10.55;;;9.48;;
65202;SDS011;51788;45.124;38.966;2022-08-05T00:28:13;12.88;;;10.00;;
65202;SDS011;51788;45.124;38.966;2022-08-05T00:30:40;11.23;;;10.02;;
65202;SDS011;51788;45.124;38.966;2022-08-05T00:33:06;10.68;;;9.48;;
65202;SDS011;51788;45.124;38.966;2022-08-05T00:35:32;11.35;;;8.95;;
65202;SDS011;51788;45.124;38.966;2022-08-05T00:37:58;24.58;;;9.55;;
65202;SDS011;51788;45.124;38.966;2022-08-05T00:40:25;10.05;;;9.05;;
65202;SDS011;51788;45.124;38.966;2022-08-05T00:42:52;10.35;;;9.48;;
65202;SDS011;51788;45.124;38.966;2022-08-05T00:45:18;12.25;;;8.82;;
65202;SDS011;51788;45.124;38.966;2022-08-05T00:47:44;11.65;;;10.02;;
65202;SDS011;51788;45.124;38.966;2022-08-05T00:50:10;11.32;;;10.20;;
65202;SDS011;51788;45.124;38.966;2022-08-05T00:52:36;28.58;;;10.63;;
65202;SDS011;51788;45.124;38.966;2022-08-05T00:55:02;12.30;;;10.13;;
65202;SDS011;51788;45.124;38.966;2022-08-05T00:57:29;10.07;;;9.18;;
65202;SDS011;51788;45.124;38.966;2022-08-05T00:59:55;14.13;;;9.20;;
65202;SDS011;51788;45.124;38.966;2022-08-05T01:02:21;10.18;;;9.18;;
65202;SDS011;51788;45.124;38.966;2022-08-05T01:04:47;10.15;;;9.15;;
65202;SDS011;51788;45.124;38.966;2022-08-05T01:07:13;11.88;;;8.98;;
65202;SDS011;51788;45.124;38.966;2022-08-05T01:09:39;14.32;;;8.77;;
65202;SDS011;51788;45.124;38.966;2022-08-05T01:12:07;12.45;;;9.93;;
65202;SDS011;51788;45.124;38.966;2022-08-05T01:14:40;9.98;;;8.98;;
65202;SDS011;51788;45.124;38.966;2022-08-05T01:19:49;10.98;;;9.18;;
65202;SDS011;51788;45.124;38.966;2022-08-05T01:30:47;14.32;;;10.07;;
65202;SDS011;51788;45.124;38.966;2022-08-05T01:33:22;9.50;;;8.70;;
65202;SDS011;51788;45.124;38.966;2022-08-05T01:35:54;12.27;;;9.57;;
65202;SDS011;51788;45.124;38.966;2022-08-05T01:38:23;10.15;;;9.18;;
65202;SDS011;51788;45.124;38.966;2022-08-05T01:40:51;11.65;;;10.30;;
65202;SDS011;51788;45.124;38.966;2022-08-05T01:43:19;12.13;;;10.30;;
65202;SDS011;51788;45.124;38.966;2022-08-05T01:45:47;14.85;;;10.15;;
65202;SDS011;51788;45.124;38.966;2022-08-05T01:48:14;10.65;;;9.73;;
65202;SDS011;51788;45.124;38.966;2022-08-05T01:50:41;10.93;;;9.77;;
65202;SDS011;51788;45.124;38.966;2022-08-05T01:53:09;17.52;;;9.82;;
65202;SDS011;51788;45.124;38.966;2022-08-05T01:55:39;11.32;;;10.18;;
65202;SDS011;51788;45.124;38.966;2022-08-05T01:58:08;18.35;;;10.07;;
65202;SDS011;51788;45.124;38.966;2022-08-05T02:00:37;16.90;;;10.93;;
65202;SDS011;51788;45.124;38.966;2022-08-05T02:03:11;11.07;;;10.18;;
65202;SDS011;51788;45.124;38.966;2022-08-05T02:05:42;11.80;;;10.52;;
65202;SDS011;51788;45.124;38.966;2022-08-05T02:08:09;14.35;;;10.57;;
65202;SDS011;51788;45.124;38.966;2022-08-05T02:10:38;12.45;;;11.13;;
65202;SDS011;51788;45.124;38.966;2022-08-05T02:13:17;13.00;;;10.30;;
65202;SDS011;51788;45.124;38.966;2022-08-05T02:16:20;11.48;;;10.55;;
65202;SDS011;51788;45.124;38.966;2022-08-05T02:18:52;16.92;;;10.63;;
65202;SDS011;51788;45.124;38.966;2022-08-05T02:21:24;12.68;;;10.93;;
65202;SDS011;51788;45.124;38.966;2022-08-05T02:23:55;17.05;;;10.18;;
65202;SDS011;51788;45.124;38.966;2022-08-05T02:26:43;13.20;;;10.65;;
65202;SDS011;51788;45.124;38.966;2022-08-05T02:29:15;11.65;;;9.20;;
65202;SDS011;51788;45.124;38.966;2022-08-05T02:31:43;13.57;;;10.60;;
65202;SDS011;51788;45.124;38.966;2022-08-05T02:34:11;12.75;;;10.95;;
65202;SDS011;51788;45.124;38.966;2022-08-05T02:36:41;17.95;;;10.85;;
65202;SDS011;51788;45.124;38.966;2022-08-05T02:39:11;16.58;;;11.55;;
65202;SDS011;51788;45.124;38.966;2022-08-05T02:41:40;15.48;;;11.50;;
65202;SDS011;51788;45.124;38.966;2022-08-05T02:44:07;14.68;;;11.43;;
65202;SDS011;51788;45.124;38.966;2022-08-05T02:46:35;15.18;;;11.45;;
65202;SDS011;51788;45.124;38.966;2022-08-05T02:49:04;27.73;;;11.57;;
65202;SDS011;51788;45.124;38.966;2022-08-05T02:51:31;11.75;;;10.77;;
65202;SDS011;51788;45.124;38.966;2022-08-05T02:54:00;17.75;;;11.07;;
65202;SDS011;51788;45.124;38.966;2022-08-05T02:56:26;16.15;;;11.27;;
65202;SDS011;51788;45.124;38.966;2022-08-05T02:58:53;21.55;;;11.85;;
65202;SDS011;51788;45.124;38.966;2022-08-05T03:01:22;19.27;;;12.10;;
65202;SDS011;51788;45.124;38.966;2022-08-05T03:03:52;12.90;;;11.63;;
65202;SDS011;51788;45.124;38.966;2022-08-05T03:06:20;12.90;;;11.55;;
65202;SDS011;51788;45.124;38.966;2022-08-05T03:08:47;13.68;;;11.68;;
65202;SDS011;51788;45.124;38.966;2022-08-05T03:11:18;12.85;;;11.55;;
65202;SDS011;51788;45.124;38.966;2022-08-05T03:13:48;14.50;;;12.20;;
65202;SDS011;51788;45.124;38.966;2022-08-05T03:16:14;14.18;;;11.07;;
65202;SDS011;51788;45.124;38.966;2022-08-05T03:18:41;15.50;;;11.90;;
65202;SDS011;51788;45.124;38.966;2022-08-05T03:21:07;13.43;;;12.10;;
65202;SDS011;51788;45.124;38.966;2022-08-05T03:23:34;13.30;;;11.23;;
65202;SDS011;51788;45.124;38.966;2022-08-05T03:26:03;11.80;;;10.52;;
65202;SDS011;51788;45.124;38.966;2022-08-05T03:28:29;18.10;;;10.23;;
65202;SDS011;51788;45.124;38.966;2022-08-05T03:30:56;12.98;;;10.18;;
65202;SDS011;51788;45.124;38.966;2022-08-05T03:33:23;11.25;;;9.48;;
65202;SDS011;51788;45.124;38.966;2022-08-05T03:35:52;9.95;;;8.95;;
65202;SDS011;51788;45.124;38.966;2022-08-05T03:38:20;11.63;;;8.85;;
65202;SDS011;51788;45.124;38.966;2022-08-05T03:40:47;17.50;;;10.88;;
65202;SDS011;51788;45.124;38.966;2022-08-05T03:43:13;15.52;;;10.57;;
65202;SDS011;51788;45.124;38.966;2022-08-05T03:45:39;11.30;;;10.18;;
65202;SDS011;51788;45.124;38.966;2022-08-05T03:48:05;11.25;;;9.35;;
65202;SDS011;51788;45.124;38.966;2022-08-05T03:50:40;14.10;;;9.38;;
65202;SDS011;51788;45.124;38.966;2022-08-05T03:53:12;20.50;;;8.57;;
65202;SDS011;51788;45.124;38.966;2022-08-05T03:55:45;14.05;;;8.63;;
65202;SDS011;51788;45.124;38.966;2022-08-05T03:58:21;14.35;;;9.00;;
65202;SDS011;51788;45.124;38.966;2022-08-05T04:00:52;16.30;;;9.45;;
65202;SDS011;51788;45.124;38.966;2022-08-05T04:03:20;25.20;;;10.05;;
65202;SDS011;51788;45.124;38.966;2022-08-05T04:05:48;16.48;;;9.95;;
65202;SDS011;51788;45.124;38.966;2022-08-05T04:08:15;12.73;;;9.65;;
65202;SDS011;51788;45.124;38.966;2022-08-05T04:10:42;18.15;;;10.02;;
65202;SDS011;51788;45.124;38.966;2022-08-05T04:13:09;12.25;;;10.05;;
65202;SDS011;51788;45.124;38.966;2022-08-05T04:15:36;18.65;;;10.48;;
65202;SDS011;51788;45.124;38.966;2022-08-05T04:18:03;11.25;;;9.65;;
65202;SDS011;51788;45.124;38.966;2022-08-05T04:20:30;13.70;;;9.38;;
65202;SDS011;51788;45.124;38.966;2022-08-05T04:22:56;14.43;;;9.70;;
65202;SDS011;51788;45.124;38.966;2022-08-05T04:25:22;12.45;;;9.75;;
65202;SDS011;51788;45.124;38.966;2022-08-05T04:27:48;18.63;;;10.40;;
65202;SDS011;51788;45.124;38.966;2022-08-05T04:30:14;20.63;;;10.80;;
65202;SDS011;51788;45.124;38.966;2022-08-05T04:32:40;9.70;;;8.80;;
65202;SDS011;51788;45.124;38.966;2022-08-05T04:35:06;10.95;;;9.80;;
65202;SDS011;51788;45.124;38.966;2022-08-05T04:37:32;18.55;;;9.57;;
65202;SDS011;51788;45.124;38.966;2022-08-05T04:39:58;10.63;;;9.57;;
65202;SDS011;51788;45.124;38.966;2022-08-05T04:42:24;14.15;;;9.90;;
65202;SDS011;51788;45.124;38.966;2022-08-05T04:44:50;11.80;;;9.93;;
65202;SDS011;51788;45.124;38.966;2022-08-05T04:47:16;11.30;;;9.52;;
65202;SDS011;51788;45.124;38.966;2022-08-05T04:49:42;11.30;;;10.15;;
65202;SDS011;51788;45.124;38.966;2022-08-05T04:52:08;19.58;;;10.63;;
65202;SDS011;51788;45.124;38.966;2022-08-05T04:54:34;24.50;;;10.25;;
65202;SDS011;51788;45.124;38.966;2022-08-05T04:57:00;11.70;;;9.88;;
65202;SDS011;51788;45.124;38.966;2022-08-05T04:59:26;12.00;;;9.48;;
65202;SDS011;51788;45.124;38.966;2022-08-05T05:01:52;12.32;;;10.23;;
65202;SDS011;51788;45.124;38.966;2022-08-05T05:04:18;14.93;;;10.00;;
65202;SDS011;51788;45.124;38.966;2022-08-05T05:06:44;17.85;;;11.10;;
65202;SDS011;51788;45.124;38.966;2022-08-05T05:09:11;12.73;;;9.63;;
65202;SDS011;51788;45.124;38.966;2022-08-05T05:11:37;13.20;;;9.40;;
65202;SDS011;51788;45.124;38.966;2022-08-05T05:14:03;16.33;;;10.50;;
65202;SDS011;51788;45.124;38.966;2022-08-05T05:16:29;12.07;;;9.13;;
65202;SDS011;51788;45.124;38.966;2022-08-05T05:18:55;11.25;;;10.15;;
65202;SDS011;51788;45.124;38.966;2022-08-05T05:21:21;11.27;;;9.60;;
65202;SDS011;51788;45.124;38.966;2022-08-05T05:23:47;11.32;;;10.23;;
65202;SDS011;51788;45.124;38.966;2022-08-05T05:26:13;14.32;;;9.73;;
65202;SDS011;51788;45.124;38.966;2022-08-05T05:28:39;16.40;;;10.43;;
65202;SDS011;51788;45.124;38.966;2022-08-05T05:31:05;10.80;;;9.90;;
65202;SDS011;51788;45.124;38.966;2022-08-05T05:33:31;13.13;;;10.80;;
65202;SDS011;51788;45.124;38.966;2022-08-05T05:35:57;12.00;;;9.73;;
65202;SDS011;51788;45.124;38.966;2022-08-05T05:38:22;10.23;;;9.27;;
65202;SDS011;51788;45.124;38.966;2022-08-05T05:40:48;15.45;;;9.32;;
65202;SDS011;51788;45.124;38.966;2022-08-05T05:43:14;10.00;;;9.15;;
65202;SDS011;51788;45.124;38.966;2022-08-05T05:45:40;12.45;;;8.90;;
65202;SDS011;51788;45.124;38.966;2022-08-05T05:48:06;13.93;;;10.25;;
65202;SDS011;51788;45.124;38.966;2022-08-05T05:50:33;10.23;;;9.10;;
65202;SDS011;51788;45.124;38.966;2022-08-05T05:53:00;13.98;;;11.30;;
65202;SDS011;51788;45.124;38.966;2022-08-05T05:55:26;17.85;;;10.85;;
65202;SDS011;51788;45.124;38.966;2022-08-05T05:57:52;14.60;;;12.70;;
65202;SDS011;51788;45.124;38.966;2022-08-05T06:00:19;13.30;;;11.40;;
65202;SDS011;51788;45.124;38.966;2022-08-05T06:02:46;19.10;;;10.48;;
65202;SDS011;51788;45.124;38.966;2022-08-05T06:05:13;13.88;;;9.38;;
65202;SDS011;51788;45.124;38.966;2022-08-05T06:07:40;19.88;;;10.35;;
65202;SDS011;51788;45.124;38.966;2022-08-05T06:10:07;15.55;;;10.85;;
65202;SDS011;51788;45.124;38.966;2022-08-05T06:12:36;11.43;;;9.80;;
65202;SDS011;51788;45.124;38.966;2022-08-05T06:15:03;18.02;;;10.73;;
65202;SDS011;51788;45.124;38.966;2022-08-05T06:17:31;21.45;;;11.52;;
65202;SDS011;51788;45.124;38.966;2022-08-05T06:19:57;14.52;;;10.95;;
65202;SDS011;51788;45.124;38.966;2022-08-05T06:22:28;12.10;;;10.88;;
65202;SDS011;51788;45.124;38.966;2022-08-05T06:24:56;18.92;;;10.80;;
65202;SDS011;51788;45.124;38.966;2022-08-05T06:27:22;17.10;;;10.57;;
65202;SDS011;51788;45.124;38.966;2022-08-05T06:29:48;15.82;;;11.68;;
65202;SDS011;51788;45.124;38.966;2022-08-05T06:32:15;21.98;;;12.57;;
65202;SDS011;51788;45.124;38.966;2022-08-05T06:34:41;12.50;;;11.40;;
65202;SDS011;51788;45.124;38.966;2022-08-05T06:37:07;15.18;;;12.02;;
65202;SDS011;51788;45.124;38.966;2022-08-05T06:39:33;16.17;;;12.73;;
65202;SDS011;51788;45.124;38.966;2022-08-05T06:42:00;16.73;;;12.02;;
65202;SDS011;51788;45.124;38.966;2022-08-05T06:44:29;19.48;;;12.82;;
65202;SDS011;51788;45.124;38.966;2022-08-05T06:46:55;18.23;;;13.57;;
65202;SDS011;51788;45.124;38.966;2022-08-05T06:49:22;24.88;;;14.02;;
65202;SDS011;51788;45.124;38.966;2022-08-05T06:51:49;19.58;;;12.15;;
65202;SDS011;51788;45.124;38.966;2022-08-05T06:54:16;14.88;;;11.80;;
65202;SDS011;51788;45.124;38.966;2022-08-05T06:56:42;16.25;;;11.50;;
65202;SDS011;51788;45.124;38.966;2022-08-05T06:59:08;16.50;;;11.98;;
65202;SDS011;51788;45.124;38.966;2022-08-05T07:01:35;22.65;;;12.75;;
65202;SDS011;51788;45.124;38.966;2022-08-05T07:04:02;22.77;;;11.00;;
65202;SDS011;51788;45.124;38.966;2022-08-05T07:06:28;14.20;;;12.52;;
65202;SDS011;51788;45.124;38.966;2022-08-05T07:08:54;13.57;;;11.48;;
65202;SDS011;51788;45.124;38.966;2022-08-05T07:11:20;14.00;;;11.15;;
65202;SDS011;51788;45.124;38.966;2022-08-05T07:13:46;15.35;;;12.65;;
65202;SDS011;51788;45.124;38.966;2022-08-05T07:16:31;21.77;;;11.73;;
65202;SDS011;51788;45.124;38.966;2022-08-05T07:19:19;20.48;;;13.70;;
65202;SDS011;51788;45.124;38.966;2022-08-05T07:21:46;18.65;;;12.52;;
65202;SDS011;51788;45.124;38.966;2022-08-05T07:24:14;15.75;;;14.15;;
65202;SDS011;51788;45.124;38.966;2022-08-05T07:26:41;15.00;;;12.52;;
65202;SDS011;51788;45.124;38.966;2022-08-05T07:29:08;17.85;;;12.48;;
65202;SDS011;51788;45.124;38.966;2022-08-05T07:31:34;17.40;;;11.75;;
65202;SDS011;51788;45.124;38.966;2022-08-05T07:34:00;16.35;;;12.88;;
65202;SDS011;51788;45.124;38.966;2022-08-05T07:36:27;14.20;;;12.32;;
65202;SDS011;51788;45.124;38.966;2022-08-05T07:38:54;16.65;;;12.00;;
65202;SDS011;51788;45.124;38.966;2022-08-05T07:41:21;17.55;;;12.40;;
65202;SDS011;51788;45.124;38.966;2022-08-05T07:43:48;18.23;;;12.13;;
65202;SDS011;51788;45.124;38.966;2022-08-05T07:46:15;14.93;;;13.10;;
65202;SDS011;51788;45.124;38.966;2022-08-05T07:48:41;18.77;;;13.32;;
65202;SDS011;51788;45.124;38.966;2022-08-05T07:51:07;14.35;;;11.98;;
65202;SDS011;51788;45.124;38.966;2022-08-05T07:53:33;14.65;;;13.05;;
65202;SDS011;51788;45.124;38.966;2022-08-05T07:56:01;17.88;;;14.27;;
65202;SDS011;51788;45.124;38.966;2022-08-05T07:58:30;18.02;;;12.75;;
65202;SDS011;51788;45.124;38.966;2022-08-05T08:00:56;15.30;;;13.70;;
65202;SDS011;51788;45.124;38.966;2022-08-05T08:03:22;17.30;;;13.00;;
65202;SDS011;51788;45.124;38.966;2022-08-05T08:05:48;20.60;;;14.32;;
65202;SDS011;51788;45.124;38.966;2022-08-05T08:08:18;16.70;;;12.57;;
65202;SDS011;51788;45.124;38.966;2022-08-05T08:10:44;25.08;;;13.30;;
65202;SDS011;51788;45.124;38.966;2022-08-05T08:13:10;18.02;;;13.77;;
65202;SDS011;51788;45.124;38.966;2022-08-05T08:15:36;20.08;;;14.90;;
65202;SDS011;51788;45.124;38.966;2022-08-05T08:18:02;34.40;;;14.02;;
65202;SDS011;51788;45.124;38.966;2022-08-05T08:20:30;19.70;;;14.40;;
65202;SDS011;51788;45.124;38.966;2022-08-05T08:22:56;18.48;;;13.35;;
65202;SDS011;51788;45.124;38.966;2022-08-05T08:25:24;16.38;;;12.93;;
65202;SDS011;51788;45.124;38.966;2022-08-05T08:27:51;16.95;;;13.35;;
65202;SDS011;51788;45.124;38.966;2022-08-05T08:30:20;19.20;;;13.30;;
65202;SDS011;51788;45.124;38.966;2022-08-05T08:32:46;21.38;;;15.10;;
65202;SDS011;51788;45.124;38.966;2022-08-05T08:35:12;16.45;;;14.50;;
65202;SDS011;51788;45.124;38.966;2022-08-05T08:37:39;26.20;;;13.00;;
65202;SDS011;51788;45.124;38.966;2022-08-05T08:40:05;16.63;;;13.77;;
65202;SDS011;51788;45.124;38.966;2022-08-05T08:42:31;19.20;;;14.05;;
65202;SDS011;51788;45.124;38.966;2022-08-05T08:44:58;30.33;;;17.77;;
65202;SDS011;51788;45.124;38.966;2022-08-05T08:47:25;23.80;;;14.77;;
65202;SDS011;51788;45.124;38.966;2022-08-05T08:49:53;21.25;;;13.70;;
65202;SDS011;51788;45.124;38.966;2022-08-05T08:52:24;20.85;;;13.35;;
65202;SDS011;51788;45.124;38.966;2022-08-05T08:54:54;26.98;;;13.82;;
65202;SDS011;51788;45.124;38.966;2022-08-05T08:57:20;23.20;;;14.48;;
65202;SDS011;51788;45.124;38.966;2022-08-05T08:59:47;22.13;;;14.43;;
65202;SDS011;51788;45.124;38.966;2022-08-05T09:02:15;18.77;;;14.55;;
65202;SDS011;51788;45.124;38.966;2022-08-05T09:04:44;21.25;;;12.63;;
65202;SDS011;51788;45.124;38.966;2022-08-05T09:07:11;13.38;;;11.98;;
65202;SDS011;51788;45.124;38.966;2022-08-05T09:09:37;18.65;;;13.73;;
65202;SDS011;51788;45.124;38.966;2022-08-05T09:12:04;18.42;;;14.35;;
65202;SDS011;51788;45.124;38.966;2022-08-05T09:14:33;19.88;;;13.15;;
65202;SDS011;51788;45.124;38.966;2022-08-05T09:17:01;16.55;;;12.27;;
65202;SDS011;51788;45.124;38.966;2022-08-05T09:19:29;20.63;;;12.40;;
65202;SDS011;51788;45.124;38.966;2022-08-05T09:21:55;20.35;;;12.80;;
65202;SDS011;51788;45.124;38.966;2022-08-05T09:24:21;18.92;;;13.25;;
65202;SDS011;51788;45.124;38.966;2022-08-05T09:26:51;31.25;;;12.13;;
65202;SDS011;51788;45.124;38.966;2022-08-05T09:29:20;17.38;;;12.73;;
65202;SDS011;51788;45.124;38.966;2022-08-05T09:32:02;19.08;;;12.00;;
65202;SDS011;51788;45.124;38.966;2022-08-05T09:34:44;15.48;;;11.88;;
65202;SDS011;51788;45.124;38.966;2022-08-05T09:37:25;17.15;;;10.98;;
65202;SDS011;51788;45.124;38.966;2022-08-05T09:39:53;14.50;;;11.70;;
65202;SDS011;51788;45.124;38.966;2022-08-05T09:42:19;18.33;;;11.88;;
65202;SDS011;51788;45.124;38.966;2022-08-05T09:44:51;17.23;;;11.18;;
65202;SDS011;51788;45.124;38.966;2022-08-05T09:47:19;14.53;;;12.17;;
65202;SDS011;51788;45.124;38.966;2022-08-05T09:49:48;24.75;;;13.38;;
65202;SDS011;51788;45.124;38.966;2022-08-05T09:52:22;19.63;;;13.70;;
65202;SDS011;51788;45.124;38.966;2022-08-05T09:54:54;16.95;;;12.10;;
65202;SDS011;51788;45.124;38.966;2022-08-05T09:57:36;17.23;;;11.00;;
65202;SDS011;51788;45.124;38.966;2022-08-05T10:00:11;18.83;;;12.70;;
65202;SDS011;51788;45.124;38.966;2022-08-05T10:02:43;18.27;;;12.73;;
65202;SDS011;51788;45.124;38.966;2022-08-05T10:05:14;25.58;;;12.30;;
65202;SDS011;51788;45.124;38.966;2022-08-05T10:07:43;13.13;;;11.85;;
65202;SDS011;51788;45.124;38.966;2022-08-05T10:10:10;17.30;;;12.48;;
65202;SDS011;51788;45.124;38.966;2022-08-05T10:12:44;17.08;;;11.75;;
65202;SDS011;51788;45.124;38.966;2022-08-05T10:15:14;17.73;;;12.43;;
65202;SDS011;51788;45.124;38.966;2022-08-05T10:17:41;23.67;;;11.65;;
65202;SDS011;51788;45.124;38.966;2022-08-05T10:20:07;17.90;;;11.75;;
65202;SDS011;51788;45.124;38.966;2022-08-05T10:22:40;21.17;;;11.40;;
65202;SDS011;51788;45.124;38.966;2022-08-05T10:25:07;17.08;;;11.32;;
65202;SDS011;51788;45.124;38.966;2022-08-05T10:27:34;14.35;;;11.40;;
65202;SDS011;51788;45.124;38.966;2022-08-05T10:30:00;20.60;;;11.98;;
65202;SDS011;51788;45.124;38.966;2022-08-05T10:32:26;14.90;;;12.05;;
65202;SDS011;51788;45.124;38.966;2022-08-05T10:34:52;14.65;;;11.32;;
65202;SDS011;51788;45.124;38.966;2022-08-05T10:37:19;21.80;;;11.45;;
65202;SDS011;51788;45.124;38.966;2022-08-05T10:39:45;19.40;;;11.23;;
65202;SDS011;51788;45.124;38.966;2022-08-05T10:42:17;27.65;;;12.43;;
65202;SDS011;51788;45.124;38.966;2022-08-05T10:47:15;18.30;;;11.93;;
65202;SDS011;51788;45.124;38.966;2022-08-05T10:50:01;18.40;;;11.45;;
65202;SDS011;51788;45.124;38.966;2022-08-05T10:52:38;18.20;;;11.80;;
65202;SDS011;51788;45.124;38.966;2022-08-05T10:55:07;13.85;;;11.27;;
65202;SDS011;51788;45.124;38.966;2022-08-05T10:57:38;17.13;;;12.13;;
65202;SDS011;51788;45.124;38.966;2022-08-05T11:00:10;14.50;;;11.30;;
65202;SDS011;51788;45.124;38.966;2022-08-05T11:05:28;12.48;;;11.10;;
65202;SDS011;51788;45.124;38.966;2022-08-05T11:07:55;17.83;;;11.48;;
65202;SDS011;51788;45.124;38.966;2022-08-05T11:10:23;13.68;;;11.00;;
65202;SDS011;51788;45.124;38.966;2022-08-05T11:12:50;13.85;;;10.60;;
65202;SDS011;51788;45.124;38.966;2022-08-05T11:17:50;10.15;;;8.80;;
65202;SDS011;51788;45.124;38.966;2022-08-05T11:20:37;22.95;;;10.75;;
65202;SDS011;51788;45.124;38.966;2022-08-05T11:26:04;20.58;;;10.00;;
65202;SDS011;51788;45.124;38.966;2022-08-05T11:28:49;17.92;;;10.00;;
65202;SDS011;51788;45.124;38.966;2022-08-05T11:31:17;22.25;;;11.38;;
65202;SDS011;51788;45.124;38.966;2022-08-05T11:36:12;15.30;;;10.68;;
65202;SDS011;51788;45.124;38.966;2022-08-05T11:41:27;14.98;;;10.50;;
65202;SDS011;51788;45.124;38.966;2022-08-05T11:46:35;13.18;;;9.13;;
65202;SDS011;51788;45.124;38.966;2022-08-05T11:49:06;9.52;;;8.63;;
65202;SDS011;51788;45.124;38.966;2022-08-05T11:51:36;13.98;;;9.15;;
65202;SDS011;51788;45.124;38.966;2022-08-05T11:54:02;13.77;;;9.05;;
65202;SDS011;51788;45.124;38.966;2022-08-05T11:56:44;13.43;;;9.95;;
65202;SDS011;51788;45.124;38.966;2022-08-05T11:59:12;15.20;;;8.95;;
65202;SDS011;51788;45.124;38.966;2022-08-05T12:01:55;13.73;;;9.67;;
65202;SDS011;51788;45.124;38.966;2022-08-05T12:04:24;11.82;;;8.48;;
65202;SDS011;51788;45.124;38.966;2022-08-05T12:06:52;15.70;;;8.55;;
65202;SDS011;51788;45.124;38.966;2022-08-05T12:09:23;13.50;;;8.75;;
65202;SDS011;51788;45.124;38.966;2022-08-05T12:11:51;10.50;;;9.50;;
65202;SDS011;51788;45.124;38.966;2022-08-05T12:14:17;16.88;;;8.90;;
65202;SDS011;51788;45.124;38.966;2022-08-05T12:16:45;10.60;;;9.35;;
65202;SDS011;51788;45.124;38.966;2022-08-05T12:19:12;11.18;;;9.55;;
65202;SDS011;51788;45.124;38.966;2022-08-05T12:21:46;13.30;;;9.95;;
65202;SDS011;51788;45.124;38.966;2022-08-05T12:29:25;17.70;;;9.90;;
65202;SDS011;51788;45.124;38.966;2022-08-05T12:31:57;15.40;;;8.88;;
65202;SDS011;51788;45.124;38.966;2022-08-05T12:34:25;22.73;;;9.90;;
65202;SDS011;51788;45.124;38.966;2022-08-05T12:36:56;10.67;;;9.00;;
65202;SDS011;51788;45.124;38.966;2022-08-05T12:39:35;22.23;;;10.50;;
65202;SDS011;51788;45.124;38.966;2022-08-05T12:42:09;13.85;;;8.70;;
65202;SDS011;51788;45.124;38.966;2022-08-05T12:44:40;13.32;;;8.65;;
65202;SDS011;51788;45.124;38.966;2022-08-05T12:47:08;10.48;;;7.32;;
65202;SDS011;51788;45.124;38.966;2022-08-05T12:49:45;14.00;;;7.75;;
65202;SDS011;51788;45.124;38.966;2022-08-05T12:52:15;20.63;;;9.18;;
65202;SDS011;51788;45.124;38.966;2022-08-05T12:54:44;11.55;;;6.82;;
65202;SDS011;51788;45.124;38.966;2022-08-05T12:57:15;23.77;;;7.68;;
65202;SDS011;51788;45.124;38.966;2022-08-05T12:59:44;14.95;;;8.13;;
65202;SDS011;51788;45.124;38.966;2022-08-05T13:02:21;9.05;;;8.05;;
65202;SDS011;51788;45.124;38.966;2022-08-05T13:04:51;12.70;;;9.52;;
65202;SDS011;51788;45.124;38.966;2022-08-05T13:07:19;19.95;;;10.15;;
65202;SDS011;51788;45.124;38.966;2022-08-05T13:09:48;15.02;;;10.85;;
65202;SDS011;51788;45.124;38.966;2022-08-05T13:12:16;10.52;;;9.43;;
65202;SDS011;51788;45.124;38.966;2022-08-05T13:14:46;18.25;;;9.52;;
65202;SDS011;51788;45.124;38.966;2022-08-05T13:17:18;10.27;;;9.13;;
65202;SDS011;51788;45.124;38.966;2022-08-05T13:19:56;11.30;;;9.57;;
65202;SDS011;51788;45.124;38.966;2022-08-05T13:22:25;12.63;;;9.35;;
65202;SDS011;51788;45.124;38.966;2022-08-05T13:24:52;19.55;;;9.93;;
65202;SDS011;51788;45.124;38.966;2022-08-05T13:27:31;11.13;;;9.60;;
65202;SDS011;51788;45.124;38.966;2022-08-05T13:30:00;15.95;;;8.82;;
65202;SDS011;51788;45.124;38.966;2022-08-05T13:32:27;10.40;;;8.60;;
65202;SDS011;51788;45.124;38.966;2022-08-05T13:34:53;20.15;;;9.60;;
65202;SDS011;51788;45.124;38.966;2022-08-05T13:37:20;12.85;;;9.10;;
65202;SDS011;51788;45.124;38.966;2022-08-05T13:39:47;14.15;;;10.02;;
65202;SDS011;51788;45.124;38.966;2022-08-05T13:42:14;10.38;;;9.35;;
65202;SDS011;51788;45.124;38.966;2022-08-05T13:44:41;10.20;;;8.60;;
65202;SDS011;51788;45.124;38.966;2022-08-05T13:47:08;11.23;;;8.50;;
65202;SDS011;51788;45.124;38.966;2022-08-05T13:49:34;28.60;;;8.32;;
65202;SDS011;51788;45.124;38.966;2022-08-05T13:52:13;9.73;;;7.50;;
65202;SDS011;51788;45.124;38.966;2022-08-05T13:54:40;12.35;;;7.93;;
65202;SDS011;51788;45.124;38.966;2022-08-05T13:57:10;11.80;;;7.88;;
65202;SDS011;51788;45.124;38.966;2022-08-05T13:59:37;15.43;;;8.02;;
65202;SDS011;51788;45.124;38.966;2022-08-05T14:02:05;10.38;;;8.48;;
65202;SDS011;51788;45.124;38.966;2022-08-05T14:04:33;16.50;;;8.10;;
65202;SDS011;51788;45.124;38.966;2022-08-05T14:07:26;34.05;;;9.90;;
65202;SDS011;51788;45.124;38.966;2022-08-05T14:09:56;12.02;;;8.90;;
65202;SDS011;51788;45.124;38.966;2022-08-05T14:12:22;13.95;;;8.35;;
65202;SDS011;51788;45.124;38.966;2022-08-05T14:14:48;14.02;;;9.63;;
65202;SDS011;51788;45.124;38.966;2022-08-05T14:17:14;17.35;;;8.82;;
65202;SDS011;51788;45.124;38.966;2022-08-05T14:19:41;12.02;;;8.45;;
65202;SDS011;51788;45.124;38.966;2022-08-05T14:22:08;16.55;;;8.82;;
65202;SDS011;51788;45.124;38.966;2022-08-05T14:24:34;24.63;;;9.02;;
65202;SDS011;51788;45.124;38.966;2022-08-05T14:27:01;12.60;;;8.20;;
65202;SDS011;51788;45.124;38.966;2022-08-05T14:29:28;35.45;;;9.43;;
65202;SDS011;51788;45.124;38.966;2022-08-05T14:31:54;34.40;;;9.75;;
65202;SDS011;51788;45.124;38.966;2022-08-05T14:34:20;22.48;;;8.35;;
65202;SDS011;51788;45.124;38.966;2022-08-05T14:36:46;17.80;;;9.52;;
65202;SDS011;51788;45.124;38.966;2022-08-05T14:39:12;28.45;;;9.75;;
65202;SDS011;51788;45.124;38.966;2022-08-05T14:41:38;10.38;;;9.15;;
65202;SDS011;51788;45.124;38.966;2022-08-05T14:44:04;37.83;;;9.85;;
65202;SDS011;51788;45.124;38.966;2022-08-05T14:46:30;14.32;;;8.77;;
65202;SDS011;51788;45.124;38.966;2022-08-05T14:48:57;13.80;;;9.48;;
65202;SDS011;51788;45.124;38.966;2022-08-05T14:51:24;20.58;;;7.93;;
65202;SDS011;51788;45.124;38.966;2022-08-05T14:53:51;19.65;;;8.68;;
65202;SDS011;51788;45.124;38.966;2022-08-05T14:56:17;13.32;;;8.07;;